sensor_id;sensor_type;location;lat;lon;timestamp;P1;durP1;ratioP1;P2;durP2;ratioP2
10013;SDS011;45684;48.358;10.746;2023-06-14T00:00:12;3.77;;;3.47;;
10013;SDS011;45684;48.358;10.746;2023-06-14T00:02:41;4.20;;;3.90;;
10013;SDS011;45684;48.358;10.746;2023-06-14T00:05:09;4.67;;;4.27;;
10013;SDS011;45684;48.358;10.746;2023-06-14T00:07:39;5.47;;;3.90;;
10013;SDS011;45684;48.358;10.746;2023-06-14T00:10:09;4.80;;;4.33;;
10013;SDS011;45684;48.358;10.746;2023-06-14T00:12:38;4.07;;;3.70;;
10013;SDS011;45684;48.358;10.746;2023-06-14T00:15:08;4.47;;;4.07;;
10013;SDS011;45684;48.358;10.746;2023-06-14T00:17:36;4.87;;;4.47;;
10013;SDS011;45684;48.358;10.746;2023-06-14T00:20:05;4.83;;;4.43;;
10013;SDS011;45684;48.358;10.746;2023-06-14T00:22:34;4.50;;;4.20;;
10013;SDS011;45684;48.358;10.746;2023-06-14T00:25:03;5.20;;;4.67;;
10013;SDS011;45684;48.358;10.746;2023-06-14T00:27:51;5.00;;;4.43;;
10013;SDS011;45684;48.358;10.746;2023-06-14T00:30:21;4.87;;;4.47;;
10013;SDS011;45684;48.358;10.746;2023-06-14T00:32:49;5.30;;;4.90;;
10013;SDS011;45684;48.358;10.746;2023-06-14T00:35:18;4.83;;;4.53;;
10013;SDS011;45684;48.358;10.746;2023-06-14T00:37:46;5.27;;;4.77;;
10013;SDS011;45684;48.358;10.746;2023-06-14T00:40:13;5.43;;;5.03;;
10013;SDS011;45684;48.358;10.746;2023-06-14T00:42:44;4.73;;;4.33;;
10013;SDS011;45684;48.358;10.746;2023-06-14T00:45:12;4.70;;;4.30;;
10013;SDS011;45684;48.358;10.746;2023-06-14T00:47:42;4.70;;;4.23;;
10013;SDS011;45684;48.358;10.746;2023-06-14T00:50:10;5.07;;;4.47;;
10013;SDS011;45684;48.358;10.746;2023-06-14T00:52:39;5.70;;;5.20;;
10013;SDS011;45684;48.358;10.746;2023-06-14T00:55:07;4.90;;;4.50;;
10013;SDS011;45684;48.358;10.746;2023-06-14T00:57:36;4.53;;;4.20;;
10013;SDS011;45684;48.358;10.746;2023-06-14T01:00:06;5.17;;;4.77;;
10013;SDS011;45684;48.358;10.746;2023-06-14T01:02:36;5.27;;;4.60;;
10013;SDS011;45684;48.358;10.746;2023-06-14T01:05:08;5.33;;;4.90;;
10013;SDS011;45684;48.358;10.746;2023-06-14T01:10:36;5.93;;;5.20;;
10013;SDS011;45684;48.358;10.746;2023-06-14T01:13:18;5.93;;;5.50;;
10013;SDS011;45684;48.358;10.746;2023-06-14T01:15:48;4.83;;;4.53;;
10013;SDS011;45684;48.358;10.746;2023-06-14T01:18:18;6.40;;;5.90;;
10013;SDS011;45684;48.358;10.746;2023-06-14T01:20:47;9.53;;;8.83;;
10013;SDS011;45684;48.358;10.746;2023-06-14T01:23:18;7.53;;;7.03;;
10013;SDS011;45684;48.358;10.746;2023-06-14T01:25:47;9.93;;;9.43;;
10013;SDS011;45684;48.358;10.746;2023-06-14T01:28:19;8.03;;;7.57;;
10013;SDS011;45684;48.358;10.746;2023-06-14T01:30:48;6.40;;;6.00;;
10013;SDS011;45684;48.358;10.746;2023-06-14T01:33:20;14.27;;;13.50;;
10013;SDS011;45684;48.358;10.746;2023-06-14T01:35:49;14.10;;;13.30;;
10013;SDS011;45684;48.358;10.746;2023-06-14T01:38:21;15.80;;;14.90;;
10013;SDS011;45684;48.358;10.746;2023-06-14T01:40:51;15.30;;;14.50;;
10013;SDS011;45684;48.358;10.746;2023-06-14T01:43:24;11.97;;;11.27;;
10013;SDS011;45684;48.358;10.746;2023-06-14T01:45:53;12.97;;;12.37;;
10013;SDS011;45684;48.358;10.746;2023-06-14T01:48:22;12.13;;;11.43;;
10013;SDS011;45684;48.358;10.746;2023-06-14T01:50:51;15.97;;;15.20;;
10013;SDS011;45684;48.358;10.746;2023-06-14T01:53:21;16.93;;;16.13;;
10013;SDS011;45684;48.358;10.746;2023-06-14T01:55:49;16.70;;;15.83;;
10013;SDS011;45684;48.358;10.746;2023-06-14T01:58:20;17.53;;;16.53;;
10013;SDS011;45684;48.358;10.746;2023-06-14T02:00:50;15.40;;;14.40;;
10013;SDS011;45684;48.358;10.746;2023-06-14T02:03:21;13.40;;;12.53;;
10013;SDS011;45684;48.358;10.746;2023-06-14T02:05:51;14.97;;;14.17;;
10013;SDS011;45684;48.358;10.746;2023-06-14T02:08:22;12.13;;;11.43;;
10013;SDS011;45684;48.358;10.746;2023-06-14T02:10:50;12.70;;;11.90;;
10013;SDS011;45684;48.358;10.746;2023-06-14T02:13:20;16.90;;;15.80;;
10013;SDS011;45684;48.358;10.746;2023-06-14T02:15:49;18.67;;;17.67;;
10013;SDS011;45684;48.358;10.746;2023-06-14T02:18:21;16.30;;;15.30;;
10013;SDS011;45684;48.358;10.746;2023-06-14T02:20:49;14.93;;;13.97;;
10013;SDS011;45684;48.358;10.746;2023-06-14T02:23:16;13.70;;;12.90;;
10013;SDS011;45684;48.358;10.746;2023-06-14T02:25:46;9.07;;;8.57;;
10013;SDS011;45684;48.358;10.746;2023-06-14T02:28:14;10.40;;;9.70;;
10013;SDS011;45684;48.358;10.746;2023-06-14T02:30:42;10.20;;;9.60;;
10013;SDS011;45684;48.358;10.746;2023-06-14T02:33:10;10.50;;;9.90;;
10013;SDS011;45684;48.358;10.746;2023-06-14T02:35:39;9.90;;;9.20;;
10013;SDS011;45684;48.358;10.746;2023-06-14T02:38:07;9.40;;;8.70;;
10013;SDS011;45684;48.358;10.746;2023-06-14T02:40:35;11.43;;;10.67;;
10013;SDS011;45684;48.358;10.746;2023-06-14T02:43:05;10.27;;;9.67;;
10013;SDS011;45684;48.358;10.746;2023-06-14T02:45:33;9.43;;;8.87;;
10013;SDS011;45684;48.358;10.746;2023-06-14T02:48:00;9.93;;;9.23;;
10013;SDS011;45684;48.358;10.746;2023-06-14T02:50:28;10.27;;;9.67;;
10013;SDS011;45684;48.358;10.746;2023-06-14T02:52:56;11.70;;;10.83;;
10013;SDS011;45684;48.358;10.746;2023-06-14T02:55:24;18.30;;;17.40;;
10013;SDS011;45684;48.358;10.746;2023-06-14T02:57:52;24.10;;;23.07;;
10013;SDS011;45684;48.358;10.746;2023-06-14T03:00:22;23.50;;;22.30;;
10013;SDS011;45684;48.358;10.746;2023-06-14T03:02:50;21.57;;;20.57;;
10013;SDS011;45684;48.358;10.746;2023-06-14T03:05:20;28.93;;;27.67;;
10013;SDS011;45684;48.358;10.746;2023-06-14T03:07:48;21.67;;;20.50;;
10013;SDS011;45684;48.358;10.746;2023-06-14T03:10:17;8.73;;;8.13;;
10013;SDS011;45684;48.358;10.746;2023-06-14T03:12:45;22.37;;;21.07;;
10013;SDS011;45684;48.358;10.746;2023-06-14T03:15:14;36.93;;;35.33;;
10013;SDS011;45684;48.358;10.746;2023-06-14T03:17:47;58.27;;;55.50;;
10013;SDS011;45684;48.358;10.746;2023-06-14T03:20:16;59.60;;;57.10;;
10013;SDS011;45684;48.358;10.746;2023-06-14T03:22:45;72.20;;;69.27;;
10013;SDS011;45684;48.358;10.746;2023-06-14T03:25:14;69.50;;;66.50;;
10013;SDS011;45684;48.358;10.746;2023-06-14T03:27:44;64.90;;;62.20;;
10013;SDS011;45684;48.358;10.746;2023-06-14T03:30:12;57.83;;;55.57;;
10013;SDS011;45684;48.358;10.746;2023-06-14T03:32:44;56.07;;;53.73;;
10013;SDS011;45684;48.358;10.746;2023-06-14T03:35:13;52.97;;;50.77;;
10013;SDS011;45684;48.358;10.746;2023-06-14T03:37:45;57.93;;;55.43;;
10013;SDS011;45684;48.358;10.746;2023-06-14T03:40:15;57.03;;;54.70;;
10013;SDS011;45684;48.358;10.746;2023-06-14T03:42:47;45.17;;;43.23;;
10013;SDS011;45684;48.358;10.746;2023-06-14T03:45:15;56.07;;;53.83;;
10013;SDS011;45684;48.358;10.746;2023-06-14T03:47:43;58.37;;;56.03;;
10013;SDS011;45684;48.358;10.746;2023-06-14T03:50:12;49.63;;;47.53;;
10013;SDS011;45684;48.358;10.746;2023-06-14T03:52:40;59.93;;;57.43;;
10013;SDS011;45684;48.358;10.746;2023-06-14T03:55:10;60.63;;;58.23;;
10013;SDS011;45684;48.358;10.746;2023-06-14T03:57:42;55.57;;;53.27;;
10013;SDS011;45684;48.358;10.746;2023-06-14T04:00:14;46.30;;;44.30;;
10013;SDS011;45684;48.358;10.746;2023-06-14T04:02:43;44.57;;;42.50;;
10013;SDS011;45684;48.358;10.746;2023-06-14T04:05:13;66.00;;;63.23;;
10013;SDS011;45684;48.358;10.746;2023-06-14T04:07:46;39.73;;;37.80;;
10013;SDS011;45684;48.358;10.746;2023-06-14T04:10:15;59.43;;;57.03;;
10013;SDS011;45684;48.358;10.746;2023-06-14T04:12:44;48.83;;;46.70;;
10013;SDS011;45684;48.358;10.746;2023-06-14T04:15:12;39.33;;;37.63;;
10013;SDS011;45684;48.358;10.746;2023-06-14T04:17:49;47.23;;;45.27;;
10013;SDS011;45684;48.358;10.746;2023-06-14T04:20:21;44.70;;;42.83;;
10013;SDS011;45684;48.358;10.746;2023-06-14T04:22:50;48.37;;;46.33;;
10013;SDS011;45684;48.358;10.746;2023-06-14T04:25:19;51.93;;;49.53;;
10013;SDS011;45684;48.358;10.746;2023-06-14T04:27:50;43.33;;;40.30;;
10013;SDS011;45684;48.358;10.746;2023-06-14T04:30:19;38.27;;;35.40;;
10013;SDS011;45684;48.358;10.746;2023-06-14T04:32:49;73.90;;;71.00;;
10013;SDS011;45684;48.358;10.746;2023-06-14T04:35:23;83.47;;;80.03;;
10013;SDS011;45684;48.358;10.746;2023-06-14T04:37:52;90.37;;;86.67;;
10013;SDS011;45684;48.358;10.746;2023-06-14T04:40:21;116.70;;;112.23;;
10013;SDS011;45684;48.358;10.746;2023-06-14T04:42:49;51.40;;;49.23;;
10013;SDS011;45684;48.358;10.746;2023-06-14T04:45:18;43.53;;;41.67;;
10013;SDS011;45684;48.358;10.746;2023-06-14T04:47:46;53.33;;;51.13;;
10013;SDS011;45684;48.358;10.746;2023-06-14T04:50:14;50.17;;;47.80;;
10013;SDS011;45684;48.358;10.746;2023-06-14T04:52:45;40.23;;;38.43;;
10013;SDS011;45684;48.358;10.746;2023-06-14T04:59:31;47.40;;;45.23;;
10013;SDS011;45684;48.358;10.746;2023-06-14T05:01:59;33.60;;;32.10;;
10013;SDS011;45684;48.358;10.746;2023-06-14T05:04:27;34.30;;;32.80;;
10013;SDS011;45684;48.358;10.746;2023-06-14T05:06:57;56.60;;;54.17;;
10013;SDS011;45684;48.358;10.746;2023-06-14T05:09:26;99.93;;;95.97;;
10013;SDS011;45684;48.358;10.746;2023-06-14T05:11:54;75.17;;;72.00;;
10013;SDS011;45684;48.358;10.746;2023-06-14T05:14:22;56.47;;;54.13;;
10013;SDS011;45684;48.358;10.746;2023-06-14T05:16:50;56.93;;;54.60;;
10013;SDS011;45684;48.358;10.746;2023-06-14T05:19:18;72.43;;;69.43;;
10013;SDS011;45684;48.358;10.746;2023-06-14T05:21:47;57.97;;;55.47;;
10013;SDS011;45684;48.358;10.746;2023-06-14T05:24:15;37.03;;;35.37;;
10013;SDS011;45684;48.358;10.746;2023-06-14T05:26:44;38.20;;;36.43;;
10013;SDS011;45684;48.358;10.746;2023-06-14T05:29:12;25.53;;;24.33;;
10013;SDS011;45684;48.358;10.746;2023-06-14T05:31:40;28.90;;;27.63;;
10013;SDS011;45684;48.358;10.746;2023-06-14T05:34:08;67.87;;;65.00;;
10013;SDS011;45684;48.358;10.746;2023-06-14T05:36:36;49.20;;;47.03;;
10013;SDS011;45684;48.358;10.746;2023-06-14T05:39:05;54.30;;;52.00;;
10013;SDS011;45684;48.358;10.746;2023-06-14T05:41:33;33.60;;;32.03;;
10013;SDS011;45684;48.358;10.746;2023-06-14T05:44:02;17.50;;;16.50;;
10013;SDS011;45684;48.358;10.746;2023-06-14T05:46:30;16.23;;;15.43;;
10013;SDS011;45684;48.358;10.746;2023-06-14T05:48:58;13.80;;;12.97;;
10013;SDS011;45684;48.358;10.746;2023-06-14T05:51:25;14.47;;;13.57;;
10013;SDS011;45684;48.358;10.746;2023-06-14T05:53:53;14.00;;;13.10;;
10013;SDS011;45684;48.358;10.746;2023-06-14T05:56:22;13.03;;;12.13;;
10013;SDS011;45684;48.358;10.746;2023-06-14T05:58:50;16.70;;;15.57;;
10013;SDS011;45684;48.358;10.746;2023-06-14T06:01:19;13.27;;;12.47;;
10013;SDS011;45684;48.358;10.746;2023-06-14T06:03:47;14.47;;;13.57;;
10013;SDS011;45684;48.358;10.746;2023-06-14T06:06:15;17.30;;;16.30;;
10013;SDS011;45684;48.358;10.746;2023-06-14T06:08:43;12.53;;;11.73;;
10013;SDS011;45684;48.358;10.746;2023-06-14T06:11:11;5.90;;;5.17;;
10013;SDS011;45684;48.358;10.746;2023-06-14T06:13:39;6.93;;;6.33;;
10013;SDS011;45684;48.358;10.746;2023-06-14T06:16:07;5.83;;;5.07;;
10013;SDS011;45684;48.358;10.746;2023-06-14T06:18:36;5.57;;;5.07;;
10013;SDS011;45684;48.358;10.746;2023-06-14T06:21:05;5.10;;;4.40;;
10013;SDS011;45684;48.358;10.746;2023-06-14T06:23:33;5.50;;;4.80;;
10013;SDS011;45684;48.358;10.746;2023-06-14T06:26:02;5.07;;;4.57;;
10013;SDS011;45684;48.358;10.746;2023-06-14T06:28:29;5.33;;;4.70;;
10013;SDS011;45684;48.358;10.746;2023-06-14T06:30:57;5.67;;;5.10;;
10013;SDS011;45684;48.358;10.746;2023-06-14T06:33:28;5.13;;;4.40;;
10013;SDS011;45684;48.358;10.746;2023-06-14T06:35:58;5.13;;;4.70;;
10013;SDS011;45684;48.358;10.746;2023-06-14T06:38:26;5.67;;;4.70;;
10013;SDS011;45684;48.358;10.746;2023-06-14T06:40:53;4.70;;;4.20;;
10013;SDS011;45684;48.358;10.746;2023-06-14T06:43:22;4.53;;;4.10;;
10013;SDS011;45684;48.358;10.746;2023-06-14T06:45:50;4.50;;;3.83;;
10013;SDS011;45684;48.358;10.746;2023-06-14T06:48:18;5.07;;;3.73;;
10013;SDS011;45684;48.358;10.746;2023-06-14T06:50:46;3.80;;;3.50;;
10013;SDS011;45684;48.358;10.746;2023-06-14T06:53:15;4.43;;;4.03;;
10013;SDS011;45684;48.358;10.746;2023-06-14T06:56:00;5.80;;;3.97;;
10013;SDS011;45684;48.358;10.746;2023-06-14T06:58:28;4.97;;;3.80;;
10013;SDS011;45684;48.358;10.746;2023-06-14T07:00:56;3.97;;;3.67;;
10013;SDS011;45684;48.358;10.746;2023-06-14T07:03:23;9.53;;;3.70;;
10013;SDS011;45684;48.358;10.746;2023-06-14T07:05:51;3.73;;;3.43;;
10013;SDS011;45684;48.358;10.746;2023-06-14T07:08:20;3.90;;;3.50;;
10013;SDS011;45684;48.358;10.746;2023-06-14T07:10:48;4.90;;;4.00;;
10013;SDS011;45684;48.358;10.746;2023-06-14T07:13:16;4.47;;;3.97;;
10013;SDS011;45684;48.358;10.746;2023-06-14T07:15:44;4.00;;;3.70;;
10013;SDS011;45684;48.358;10.746;2023-06-14T07:18:12;4.10;;;3.80;;
10013;SDS011;45684;48.358;10.746;2023-06-14T07:20:42;4.67;;;3.47;;
10013;SDS011;45684;48.358;10.746;2023-06-14T07:23:10;3.40;;;3.10;;
10013;SDS011;45684;48.358;10.746;2023-06-14T07:25:39;3.93;;;3.57;;
10013;SDS011;45684;48.358;10.746;2023-06-14T07:28:07;3.70;;;3.40;;
10013;SDS011;45684;48.358;10.746;2023-06-14T07:30:35;3.70;;;3.40;;
10013;SDS011;45684;48.358;10.746;2023-06-14T07:33:03;4.93;;;3.60;;
10013;SDS011;45684;48.358;10.746;2023-06-14T07:35:31;4.03;;;3.63;;
10013;SDS011;45684;48.358;10.746;2023-06-14T07:37:58;3.83;;;3.30;;
10013;SDS011;45684;48.358;10.746;2023-06-14T07:40:26;3.80;;;3.40;;
10013;SDS011;45684;48.358;10.746;2023-06-14T07:42:55;3.77;;;3.47;;
10013;SDS011;45684;48.358;10.746;2023-06-14T07:45:23;5.30;;;3.60;;
10013;SDS011;45684;48.358;10.746;2023-06-14T07:47:51;3.87;;;3.47;;
10013;SDS011;45684;48.358;10.746;2023-06-14T07:50:19;3.83;;;3.23;;
10013;SDS011;45684;48.358;10.746;2023-06-14T07:52:47;3.63;;;3.30;;
10013;SDS011;45684;48.358;10.746;2023-06-14T07:55:15;3.80;;;3.50;;
10013;SDS011;45684;48.358;10.746;2023-06-14T07:57:44;4.00;;;3.60;;
10013;SDS011;45684;48.358;10.746;2023-06-14T08:00:16;3.87;;;3.30;;
10013;SDS011;45684;48.358;10.746;2023-06-14T08:02:44;4.13;;;3.73;;
10013;SDS011;45684;48.358;10.746;2023-06-14T08:05:12;3.53;;;3.23;;
10013;SDS011;45684;48.358;10.746;2023-06-14T08:07:41;4.50;;;4.10;;
10013;SDS011;45684;48.358;10.746;2023-06-14T08:10:09;3.73;;;3.20;;
10013;SDS011;45684;48.358;10.746;2023-06-14T08:12:37;4.03;;;3.50;;
10013;SDS011;45684;48.358;10.746;2023-06-14T08:15:05;4.93;;;3.30;;
10013;SDS011;45684;48.358;10.746;2023-06-14T08:17:41;4.33;;;3.37;;
10013;SDS011;45684;48.358;10.746;2023-06-14T08:20:10;3.27;;;2.97;;
10013;SDS011;45684;48.358;10.746;2023-06-14T08:22:39;4.17;;;2.90;;
10013;SDS011;45684;48.358;10.746;2023-06-14T08:25:08;4.80;;;3.57;;
10013;SDS011;45684;48.358;10.746;2023-06-14T08:27:37;4.50;;;3.07;;
10013;SDS011;45684;48.358;10.746;2023-06-14T08:30:05;3.30;;;3.00;;
10013;SDS011;45684;48.358;10.746;2023-06-14T08:32:35;5.30;;;3.33;;
10013;SDS011;45684;48.358;10.746;2023-06-14T08:35:04;3.67;;;3.37;;
10013;SDS011;45684;48.358;10.746;2023-06-14T08:37:33;3.70;;;3.40;;
10013;SDS011;45684;48.358;10.746;2023-06-14T08:40:07;4.13;;;3.00;;
10013;SDS011;45684;48.358;10.746;2023-06-14T08:42:45;3.20;;;3.00;;
10013;SDS011;45684;48.358;10.746;2023-06-14T08:45:15;3.47;;;2.97;;
10013;SDS011;45684;48.358;10.746;2023-06-14T08:47:43;5.00;;;2.97;;
10013;SDS011;45684;48.358;10.746;2023-06-14T08:50:14;3.40;;;3.13;;
10013;SDS011;45684;48.358;10.746;2023-06-14T08:52:54;4.27;;;3.03;;
10013;SDS011;45684;48.358;10.746;2023-06-14T08:55:24;3.20;;;2.87;;
10013;SDS011;45684;48.358;10.746;2023-06-14T08:57:53;4.00;;;2.77;;
10013;SDS011;45684;48.358;10.746;2023-06-14T09:00:23;3.90;;;2.70;;
10013;SDS011;45684;48.358;10.746;2023-06-14T09:02:52;4.27;;;3.07;;
10013;SDS011;45684;48.358;10.746;2023-06-14T09:05:26;3.33;;;3.00;;
10013;SDS011;45684;48.358;10.746;2023-06-14T09:07:55;2.80;;;2.60;;
10013;SDS011;45684;48.358;10.746;2023-06-14T09:10:31;3.30;;;2.73;;
10013;SDS011;45684;48.358;10.746;2023-06-14T09:13:01;2.67;;;2.47;;
10013;SDS011;45684;48.358;10.746;2023-06-14T09:15:29;3.20;;;2.90;;
10013;SDS011;45684;48.358;10.746;2023-06-14T09:17:57;3.27;;;2.97;;
10013;SDS011;45684;48.358;10.746;2023-06-14T09:20:28;3.10;;;2.80;;
10013;SDS011;45684;48.358;10.746;2023-06-14T09:22:57;3.30;;;3.00;;
10013;SDS011;45684;48.358;10.746;2023-06-14T09:25:25;3.40;;;3.00;;
10013;SDS011;45684;48.358;10.746;2023-06-14T09:27:56;3.00;;;2.80;;
10013;SDS011;45684;48.358;10.746;2023-06-14T09:30:24;5.30;;;2.47;;
10013;SDS011;45684;48.358;10.746;2023-06-14T09:32:52;3.80;;;2.65;;
10013;SDS011;45684;48.358;10.746;2023-06-14T09:35:20;3.17;;;2.80;;
10013;SDS011;45684;48.358;10.746;2023-06-14T09:37:49;4.25;;;2.83;;
10013;SDS011;45684;48.358;10.746;2023-06-14T09:40:20;2.80;;;2.50;;
10013;SDS011;45684;48.358;10.746;2023-06-14T09:42:48;2.83;;;2.63;;
10013;SDS011;45684;48.358;10.746;2023-06-14T09:45:17;3.00;;;2.70;;
10013;SDS011;45684;48.358;10.746;2023-06-14T09:47:48;2.60;;;2.40;;
10013;SDS011;45684;48.358;10.746;2023-06-14T09:50:31;3.30;;;2.60;;
10013;SDS011;45684;48.358;10.746;2023-06-14T09:53:02;3.47;;;2.58;;
10013;SDS011;45684;48.358;10.746;2023-06-14T09:55:33;7.03;;;3.10;;
10013;SDS011;45684;48.358;10.746;2023-06-14T09:58:04;3.30;;;3.00;;
10013;SDS011;45684;48.358;10.746;2023-06-14T10:00:34;3.97;;;3.05;;
10013;SDS011;45684;48.358;10.746;2023-06-14T10:03:05;3.05;;;2.85;;
10013;SDS011;45684;48.358;10.746;2023-06-14T10:05:39;4.45;;;2.58;;
10013;SDS011;45684;48.358;10.746;2023-06-14T10:08:13;3.33;;;2.58;;
10013;SDS011;45684;48.358;10.746;2023-06-14T10:10:43;4.45;;;2.80;;
10013;SDS011;45684;48.358;10.746;2023-06-14T10:13:11;3.45;;;2.47;;
10013;SDS011;45684;48.358;10.746;2023-06-14T10:15:42;3.10;;;2.90;;
10013;SDS011;45684;48.358;10.746;2023-06-14T10:18:19;3.17;;;2.85;;
10013;SDS011;45684;48.358;10.746;2023-06-14T10:20:59;3.00;;;2.40;;
10013;SDS011;45684;48.358;10.746;2023-06-14T10:23:37;2.55;;;2.35;;
10013;SDS011;45684;48.358;10.746;2023-06-14T10:26:09;3.47;;;2.85;;
10013;SDS011;45684;48.358;10.746;2023-06-14T10:28:50;6.68;;;2.90;;
10013;SDS011;45684;48.358;10.746;2023-06-14T10:31:32;3.45;;;2.95;;
10013;SDS011;45684;48.358;10.746;2023-06-14T10:34:08;3.05;;;2.75;;
10013;SDS011;45684;48.358;10.746;2023-06-14T10:36:36;3.70;;;2.67;;
10013;SDS011;45684;48.358;10.746;2023-06-14T10:39:09;3.00;;;2.70;;
10013;SDS011;45684;48.358;10.746;2023-06-14T10:41:41;5.05;;;2.65;;
10013;SDS011;45684;48.358;10.746;2023-06-14T10:44:33;3.88;;;2.70;;
10013;SDS011;45684;48.358;10.746;2023-06-14T10:47:20;3.05;;;2.63;;
10013;SDS011;45684;48.358;10.746;2023-06-14T10:49:53;2.55;;;2.35;;
10013;SDS011;45684;48.358;10.746;2023-06-14T10:52:26;3.95;;;2.63;;
10013;SDS011;45684;48.358;10.746;2023-06-14T10:55:06;3.67;;;2.80;;
10013;SDS011;45684;48.358;10.746;2023-06-14T10:57:39;3.05;;;2.67;;
10013;SDS011;45684;48.358;10.746;2023-06-14T11:00:12;2.60;;;2.40;;
10013;SDS011;45684;48.358;10.746;2023-06-14T11:02:51;2.95;;;2.75;;
10013;SDS011;45684;48.358;10.746;2023-06-14T11:05:52;3.45;;;2.88;;
10013;SDS011;45684;48.358;10.746;2023-06-14T11:08:27;3.88;;;2.85;;
10013;SDS011;45684;48.358;10.746;2023-06-14T11:11:07;2.70;;;2.50;;
10013;SDS011;45684;48.358;10.746;2023-06-14T11:13:36;4.70;;;2.90;;
10013;SDS011;45684;48.358;10.746;2023-06-14T11:16:16;6.03;;;2.70;;
10013;SDS011;45684;48.358;10.746;2023-06-14T11:18:46;2.85;;;2.60;;
10013;SDS011;45684;48.358;10.746;2023-06-14T11:21:15;3.10;;;2.40;;
10013;SDS011;45684;48.358;10.746;2023-06-14T11:23:48;3.42;;;2.47;;
10013;SDS011;45684;48.358;10.746;2023-06-14T11:26:25;3.25;;;2.55;;
10013;SDS011;45684;48.358;10.746;2023-06-14T11:28:55;3.17;;;2.60;;
10013;SDS011;45684;48.358;10.746;2023-06-14T11:31:24;3.05;;;2.85;;
10013;SDS011;45684;48.358;10.746;2023-06-14T11:33:54;3.33;;;2.83;;
10013;SDS011;45684;48.358;10.746;2023-06-14T11:36:23;4.35;;;2.97;;
10013;SDS011;45684;48.358;10.746;2023-06-14T11:38:59;2.80;;;2.60;;
10013;SDS011;45684;48.358;10.746;2023-06-14T11:41:33;3.13;;;2.63;;
10013;SDS011;45684;48.358;10.746;2023-06-14T11:44:03;5.43;;;2.63;;
10013;SDS011;45684;48.358;10.746;2023-06-14T11:46:32;3.97;;;2.83;;
10013;SDS011;45684;48.358;10.746;2023-06-14T11:49:00;3.60;;;2.80;;
10013;SDS011;45684;48.358;10.746;2023-06-14T11:51:29;3.20;;;2.90;;
10013;SDS011;45684;48.358;10.746;2023-06-14T11:53:58;2.97;;;2.78;;
10013;SDS011;45684;48.358;10.746;2023-06-14T11:56:26;2.70;;;2.50;;
10013;SDS011;45684;48.358;10.746;2023-06-14T11:58:55;3.58;;;2.90;;
10013;SDS011;45684;48.358;10.746;2023-06-14T12:01:24;4.28;;;2.70;;
10013;SDS011;45684;48.358;10.746;2023-06-14T12:03:53;4.10;;;2.72;;
10013;SDS011;45684;48.358;10.746;2023-06-14T12:06:28;4.65;;;2.95;;
10013;SDS011;45684;48.358;10.746;2023-06-14T12:09:00;3.10;;;2.72;;
10013;SDS011;45684;48.358;10.746;2023-06-14T12:11:32;2.90;;;2.70;;
10013;SDS011;45684;48.358;10.746;2023-06-14T12:14:04;6.43;;;2.70;;
10013;SDS011;45684;48.358;10.746;2023-06-14T12:16:32;5.35;;;2.70;;
10013;SDS011;45684;48.358;10.746;2023-06-14T12:19:08;2.65;;;2.38;;
10013;SDS011;45684;48.358;10.746;2023-06-14T12:21:41;2.80;;;2.60;;
10013;SDS011;45684;48.358;10.746;2023-06-14T12:24:09;3.65;;;2.53;;
10013;SDS011;45684;48.358;10.746;2023-06-14T12:26:40;2.53;;;2.35;;
10013;SDS011;45684;48.358;10.746;2023-06-14T12:29:10;3.95;;;2.40;;
10013;SDS011;45684;48.358;10.746;2023-06-14T12:31:39;3.08;;;2.78;;
10013;SDS011;45684;48.358;10.746;2023-06-14T12:34:07;3.45;;;2.72;;
10013;SDS011;45684;48.358;10.746;2023-06-14T12:36:35;2.70;;;2.50;;
10013;SDS011;45684;48.358;10.746;2023-06-14T12:39:07;3.10;;;2.80;;
10013;SDS011;45684;48.358;10.746;2023-06-14T12:41:35;4.53;;;2.50;;
10013;SDS011;45684;48.358;10.746;2023-06-14T12:44:04;3.15;;;2.65;;
10013;SDS011;45684;48.358;10.746;2023-06-14T12:46:33;2.80;;;2.60;;
10013;SDS011;45684;48.358;10.746;2023-06-14T12:49:01;3.05;;;2.75;;
10013;SDS011;45684;48.358;10.746;2023-06-14T12:51:29;2.90;;;2.70;;
10013;SDS011;45684;48.358;10.746;2023-06-14T12:53:57;2.88;;;2.67;;
10013;SDS011;45684;48.358;10.746;2023-06-14T12:56:25;3.33;;;2.67;;
10013;SDS011;45684;48.358;10.746;2023-06-14T12:58:53;2.72;;;2.53;;
10013;SDS011;45684;48.358;10.746;2023-06-14T13:01:21;2.88;;;2.58;;
10013;SDS011;45684;48.358;10.746;2023-06-14T13:03:51;3.63;;;2.78;;
10013;SDS011;45684;48.358;10.746;2023-06-14T13:06:20;3.10;;;2.75;;
10013;SDS011;45684;48.358;10.746;2023-06-14T13:08:48;2.75;;;2.55;;
10013;SDS011;45684;48.358;10.746;2023-06-14T13:11:16;2.97;;;2.67;;
10013;SDS011;45684;48.358;10.746;2023-06-14T13:13:44;3.50;;;2.80;;
10013;SDS011;45684;48.358;10.746;2023-06-14T13:16:12;3.65;;;2.78;;
10013;SDS011;45684;48.358;10.746;2023-06-14T13:18:41;5.45;;;2.70;;
10013;SDS011;45684;48.358;10.746;2023-06-14T13:21:10;3.30;;;2.42;;
10013;SDS011;45684;48.358;10.746;2023-06-14T13:23:49;2.67;;;2.47;;
10013;SDS011;45684;48.358;10.746;2023-06-14T13:26:30;3.38;;;2.60;;
10013;SDS011;45684;48.358;10.746;2023-06-14T13:28:57;3.00;;;2.80;;
10013;SDS011;45684;48.358;10.746;2023-06-14T13:31:25;2.90;;;2.33;;
10013;SDS011;45684;48.358;10.746;2023-06-14T13:33:53;2.65;;;2.45;;
10013;SDS011;45684;48.358;10.746;2023-06-14T13:36:22;2.70;;;2.50;;
10013;SDS011;45684;48.358;10.746;2023-06-14T13:38:50;4.30;;;2.45;;
10013;SDS011;45684;48.358;10.746;2023-06-14T13:41:19;3.05;;;2.85;;
10013;SDS011;45684;48.358;10.746;2023-06-14T13:43:47;2.67;;;2.50;;
10013;SDS011;45684;48.358;10.746;2023-06-14T13:46:14;3.17;;;2.55;;
10013;SDS011;45684;48.358;10.746;2023-06-14T13:48:42;2.65;;;2.45;;
10013;SDS011;45684;48.358;10.746;2023-06-14T13:51:12;3.38;;;2.42;;
10013;SDS011;45684;48.358;10.746;2023-06-14T13:53:41;3.80;;;2.60;;
10013;SDS011;45684;48.358;10.746;2023-06-14T13:56:10;2.50;;;2.40;;
10013;SDS011;45684;48.358;10.746;2023-06-14T13:58:38;2.75;;;2.50;;
10013;SDS011;45684;48.358;10.746;2023-06-14T14:01:05;2.85;;;2.45;;
10013;SDS011;45684;48.358;10.746;2023-06-14T14:03:39;4.68;;;2.85;;
10013;SDS011;45684;48.358;10.746;2023-06-14T14:06:07;2.90;;;2.70;;
10013;SDS011;45684;48.358;10.746;2023-06-14T14:08:36;4.47;;;3.10;;
10013;SDS011;45684;48.358;10.746;2023-06-14T14:11:05;5.88;;;3.35;;
10013;SDS011;45684;48.358;10.746;2023-06-14T14:13:33;3.38;;;2.70;;
10013;SDS011;45684;48.358;10.746;2023-06-14T14:16:02;4.63;;;2.90;;
10013;SDS011;45684;48.358;10.746;2023-06-14T14:18:30;3.45;;;2.90;;
10013;SDS011;45684;48.358;10.746;2023-06-14T14:20:59;3.80;;;2.65;;
10013;SDS011;45684;48.358;10.746;2023-06-14T14:23:28;3.25;;;2.88;;
10013;SDS011;45684;48.358;10.746;2023-06-14T14:25:56;3.42;;;2.80;;
10013;SDS011;45684;48.358;10.746;2023-06-14T14:28:25;3.53;;;2.58;;
10013;SDS011;45684;48.358;10.746;2023-06-14T14:30:53;2.90;;;2.55;;
10013;SDS011;45684;48.358;10.746;2023-06-14T14:33:21;3.97;;;2.80;;
10013;SDS011;45684;48.358;10.746;2023-06-14T14:35:49;2.70;;;2.50;;
10013;SDS011;45684;48.358;10.746;2023-06-14T14:38:17;3.05;;;2.75;;
10013;SDS011;45684;48.358;10.746;2023-06-14T14:40:45;2.90;;;2.60;;
10013;SDS011;45684;48.358;10.746;2023-06-14T14:43:13;2.78;;;2.40;;
10013;SDS011;45684;48.358;10.746;2023-06-14T14:45:42;3.08;;;2.78;;
10013;SDS011;45684;48.358;10.746;2023-06-14T14:48:10;3.42;;;2.70;;